Weather at Caramambataí (Mapae) Airport

Public forecast

Using degrees Celsius for public forecast. Weather courtesy of forecast.io.

Closest aviation weather report (METAR) to Caramambataí (Mapae) Airport

Report is more than 2 hours old.

Closest report is Kamarang Airport, 44.6 nm (82.6 km) N. Retrieved 2020/09/25 21:00 UTC (4 hours ago):

SYKM 252100Z 05008KT 9999 SCT017CB SCT018 25/21 Q//// NOSIG RMK CB ALQDS

Closest aviation forecast (TAF) to Caramambataí (Mapae) Airport

Forecast is more than 12 hours old.

Closest forecast is Kamarang Airport, 44.6 nm (82.6 km) N. Retrieved 2020/09/25 12:00 UTC (13 hours ago):

TAF SYKM 251100Z 2512/2523 07012KT 9999 BKN020 TEMPO 2518/2522 7000 TSRA FEW014CB BKN016